Time;durP1;ratioP1;P1;durP2;ratioP2;P2;SDS_P1;SDS_P2;PMS_P1;PMS_P2;Temp;Humidity;BMP_temperature;BMP_pressure;BME280_temperature;BME280_humidity;BME280_pressure;Samples;Min_cycle;Max_cycle;Signal;HPM_P1;HPM_P2
2023/04/04 00:00:37;;;;;;;7.78;4.50;;;3.00;99.90;;;;;;2087112;28;21081;-73
2023/04/04 00:01:37;;;;;;;10.23;5.00;;;3.00;99.90;;;;;;2087399;28;20057;-74
2023/04/04 00:02:38;;;;;;;11.57;4.75;;;3.00;99.90;;;;;;2095525;28;20021;-74
2023/04/04 00:03:39;;;;;;;9.68;4.55;;;3.00;99.90;;;;;;2097024;28;20028;-82
2023/04/04 00:04:39;;;;;;;7.65;4.47;;;3.00;99.90;;;;;;2094663;28;20618;-74
2023/04/04 00:05:40;;;;;;;9.07;3.88;;;3.00;99.90;;;;;;2086647;28;20115;-73
2023/04/04 00:06:44;;;;;;;6.35;3.72;;;3.00;99.90;;;;;;2082524;28;20037;-73
2023/04/04 00:07:46;;;;;;;9.18;3.75;;;3.00;99.90;;;;;;2084875;28;20029;-73
2023/04/04 00:08:46;;;;;;;7.57;3.50;;;3.00;99.90;;;;;;2080253;28;20037;-74
2023/04/04 00:09:47;;;;;;;6.63;4.03;;;3.00;99.90;;;;;;2077922;28;20396;-72
2023/04/04 00:10:47;;;;;;;7.82;3.90;;;3.00;99.90;;;;;;2085041;28;20486;-72
2023/04/04 00:11:48;;;;;;;7.05;4.07;;;3.00;99.90;;;;;;2084429;28;20206;-72
2023/04/04 00:12:49;;;;;;;8.05;4.13;;;3.00;99.90;;;;;;2084534;28;20039;-72
2023/04/04 00:13:50;;;;;;;8.70;4.00;;;3.00;99.90;;;;;;2086929;28;20072;-72
2023/04/04 00:14:51;;;;;;;6.85;3.83;;;3.00;99.90;;;;;;2080132;28;20117;-72
2023/04/04 00:15:52;;;;;;;7.55;4.28;;;3.00;99.90;;;;;;2079492;28;20033;-72
2023/04/04 00:16:53;;;;;;;6.30;4.07;;;3.00;99.90;;;;;;2069013;28;20033;-73
2023/04/04 00:17:53;;;;;;;7.95;3.88;;;3.10;99.90;;;;;;2072717;28;20026;-72
2023/04/04 00:18:54;;;;;;;7.88;3.70;;;3.10;99.90;;;;;;2084480;28;20033;-73
2023/04/04 00:19:56;;;;;;;7.35;3.70;;;3.10;99.90;;;;;;2084537;28;20046;-74
2023/04/04 00:20:56;;;;;;;6.18;3.80;;;3.00;99.90;;;;;;2079174;28;20031;-73
2023/04/04 00:21:57;;;;;;;6.75;3.80;;;3.00;99.90;;;;;;2077310;28;20770;-73
2023/04/04 00:22:58;;;;;;;8.35;3.90;;;3.00;99.90;;;;;;2074620;28;20033;-73
2023/04/04 00:23:58;;;;;;;5.55;3.70;;;3.00;99.90;;;;;;2070733;28;20025;-73
2023/04/04 00:24:59;;;;;;;6.07;4.03;;;3.00;99.90;;;;;;2083253;28;20032;-73
2023/04/04 00:26:00;;;;;;;7.70;3.67;;;3.00;99.90;;;;;;2080236;28;20634;-74
2023/04/04 00:27:01;;;;;;;7.55;3.83;;;3.00;99.90;;;;;;2081963;28;20021;-73
2023/04/04 00:28:02;;;;;;;6.20;4.00;;;3.00;99.90;;;;;;2073003;28;20038;-73
2023/04/04 00:29:03;;;;;;;7.05;3.80;;;3.00;99.90;;;;;;2077308;28;20022;-72
2023/04/04 00:30:04;;;;;;;6.65;3.70;;;3.00;99.90;;;;;;2075600;28;20025;-72
2023/04/04 00:31:05;;;;;;;6.82;3.70;;;2.90;99.90;;;;;;2076116;28;20025;-72
2023/04/04 00:32:06;;;;;;;7.30;4.03;;;2.90;99.90;;;;;;2079920;28;20722;-72
2023/04/04 00:33:06;;;;;;;6.13;3.40;;;2.90;99.90;;;;;;2077389;28;20025;-72
2023/04/04 00:34:07;;;;;;;6.57;3.35;;;2.90;99.90;;;;;;2074937;28;20040;-72
2023/04/04 00:35:08;;;;;;;6.82;3.78;;;2.90;99.90;;;;;;2085489;28;20078;-73
2023/04/04 00:36:08;;;;;;;6.72;4.10;;;2.90;99.90;;;;;;2081336;28;20033;-72
2023/04/04 00:37:11;;;;;;;6.60;3.70;;;2.90;99.90;;;;;;2084628;28;20025;-72
2023/04/04 00:38:12;;;;;;;6.63;3.90;;;2.90;99.90;;;;;;2075918;28;20484;-72
2023/04/04 00:39:13;;;;;;;6.32;3.80;;;2.90;99.90;;;;;;2079063;28;20028;-72
2023/04/04 00:40:13;;;;;;;5.45;3.70;;;2.90;99.90;;;;;;2074319;28;20504;-72
2023/04/04 00:41:15;;;;;;;7.57;3.78;;;2.90;99.90;;;;;;2072389;28;20049;-72
2023/04/04 00:42:16;;;;;;;8.45;4.25;;;2.90;99.90;;;;;;2074542;28;20104;-72
2023/04/04 00:43:18;;;;;;;6.45;3.65;;;2.90;99.90;;;;;;2084687;28;20036;-73
2023/04/04 00:44:18;;;;;;;6.40;3.60;;;2.80;99.90;;;;;;2075942;28;20021;-72
2023/04/04 00:45:19;;;;;;;7.63;3.95;;;2.90;99.90;;;;;;2071764;28;20030;-72
2023/04/04 00:46:20;;;;;;;5.93;3.70;;;2.80;99.90;;;;;;2079114;28;20521;-72
2023/04/04 00:47:28;;;;;;;7.47;3.92;;;2.90;99.90;;;;;;2072694;28;20059;-72
2023/04/04 00:48:29;;;;;;;5.22;3.60;;;2.90;99.90;;;;;;2075100;28;20064;-72
2023/04/04 00:49:29;;;;;;;9.30;4.15;;;2.90;99.90;;;;;;2068969;28;20087;-72
2023/04/04 00:50:31;;;;;;;7.22;3.80;;;2.90;99.90;;;;;;2078743;28;20037;-72
2023/04/04 00:51:31;;;;;;;9.25;3.97;;;2.80;99.90;;;;;;2087206;28;20484;-73
2023/04/04 00:52:32;;;;;;;8.27;3.92;;;2.90;99.90;;;;;;2086428;28;20131;-72
2023/04/04 00:53:33;;;;;;;9.93;4.25;;;2.80;99.90;;;;;;2086564;28;20150;-72
2023/04/04 00:54:34;;;;;;;7.53;4.10;;;2.80;99.90;;;;;;2085082;28;20112;-72
2023/04/04 00:55:38;;;;;;;9.30;3.97;;;2.80;99.90;;;;;;2077426;28;20061;-72
2023/04/04 00:56:39;;;;;;;6.38;3.92;;;2.80;99.90;;;;;;2075917;28;20030;-71
2023/04/04 00:57:40;;;;;;;8.05;3.78;;;2.80;99.90;;;;;;2077379;28;20464;-72
2023/04/04 00:58:41;;;;;;;6.60;3.80;;;2.80;99.90;;;;;;2078234;28;20025;-73
2023/04/04 00:59:43;;;;;;;5.93;3.60;;;2.80;99.90;;;;;;2082178;28;20623;-73
2023/04/04 01:00:43;;;;;;;6.25;3.70;;;2.80;99.90;;;;;;2071934;28;20036;-72
2023/04/04 01:01:44;;;;;;;6.50;3.72;;;2.80;99.90;;;;;;2074139;28;20025;-72
2023/04/04 01:02:46;;;;;;;6.88;4.10;;;2.80;99.90;;;;;;2074875;28;20484;-72
2023/04/04 01:03:47;;;;;;;7.78;3.90;;;2.70;99.90;;;;;;2074036;28;20021;-72
2023/04/04 01:04:47;;;;;;;6.22;3.78;;;2.80;99.90;;;;;;2069301;28;20788;-72
2023/04/04 01:05:48;;;;;;;5.93;3.70;;;2.70;99.90;;;;;;2066165;28;20030;-69
2023/04/04 01:06:49;;;;;;;7.90;3.90;;;2.70;99.90;;;;;;2062961;28;20022;-75
2023/04/04 01:07:51;;;;;;;6.00;3.58;;;2.70;99.90;;;;;;2074844;28;20057;-71
2023/04/04 01:08:53;;;;;;;8.38;3.95;;;2.70;99.90;;;;;;2077305;28;20028;-74
2023/04/04 01:09:56;;;;;;;7.35;3.90;;;2.80;99.90;;;;;;2081901;28;20029;-73
2023/04/04 01:10:56;;;;;;;5.80;3.78;;;2.70;99.90;;;;;;2084963;28;20029;-73
2023/04/04 01:11:58;;;;;;;7.97;3.80;;;2.80;99.90;;;;;;2076993;28;20462;-73
2023/04/04 01:13:00;;;;;;;7.43;3.70;;;2.70;99.90;;;;;;2073893;28;20037;-72
2023/04/04 01:14:01;;;;;;;8.75;4.10;;;2.70;99.90;;;;;;2073515;28;20025;-73
2023/04/04 01:15:01;;;;;;;7.65;3.90;;;2.80;99.90;;;;;;2078732;28;20032;-73
2023/04/04 01:16:02;;;;;;;6.97;3.80;;;2.70;99.90;;;;;;2083597;28;20060;-73
2023/04/04 01:17:04;;;;;;;7.57;4.18;;;2.70;99.90;;;;;;2073669;28;20141;-73
2023/04/04 01:18:05;;;;;;;7.97;4.40;;;2.70;99.90;;;;;;2077092;28;20060;-73
2023/04/04 01:19:12;;;;;;;7.05;3.58;;;2.60;99.90;;;;;;2078543;28;20021;-73
2023/04/04 01:20:21;;;;;;;7.32;4.00;;;2.60;99.90;;;;;;2074406;28;20055;-72
2023/04/04 01:21:27;;;;;;;5.20;3.72;;;2.60;99.90;;;;;;2081848;28;20017;-71
2023/04/04 01:22:30;;;;;;;7.40;3.45;;;2.60;99.90;;;;;;2083186;28;20375;-72
2023/04/04 01:23:57;;;;;;;7.32;3.70;;;2.60;99.90;;;;;;2082234;28;20037;-73
2023/04/04 01:25:00;;;;;;;6.30;3.42;;;2.70;99.90;;;;;;2086845;28;20506;-72
2023/04/04 01:26:03;;;;;;;6.47;3.38;;;2.60;99.90;;;;;;2081944;28;20021;-74
2023/04/04 01:27:05;;;;;;;7.28;3.88;;;2.70;99.90;;;;;;2080383;28;20017;-71
2023/04/04 01:28:08;;;;;;;8.07;3.80;;;2.60;99.90;;;;;;2076681;28;20147;-71
2023/04/04 01:29:09;;;;;;;7.03;3.70;;;2.60;99.90;;;;;;2077954;28;20623;-71
2023/04/04 01:30:11;;;;;;;9.80;4.30;;;2.60;99.90;;;;;;2076479;28;20499;-74
2023/04/04 01:31:14;;;;;;;10.18;4.03;;;2.60;99.90;;;;;;2079198;28;20044;-74
2023/04/04 01:32:19;;;;;;;8.95;4.07;;;2.60;99.90;;;;;;2088801;28;20423;-71
2023/04/04 01:33:27;;;;;;;9.25;4.32;;;2.60;99.90;;;;;;2085734;28;20032;-72
2023/04/04 01:34:43;;;;;;;8.20;3.95;;;2.60;99.90;;;;;;2082994;28;20031;-72
2023/04/04 01:36:12;;;;;;;6.53;3.72;;;2.60;99.90;;;;;;2083372;28;20586;-72
2023/04/04 01:37:17;;;;;;;8.50;3.92;;;2.60;99.90;;;;;;2080809;28;20296;-72
2023/04/04 01:38:33;;;;;;;7.07;3.92;;;2.60;99.90;;;;;;2086342;28;20025;-72
2023/04/04 01:39:51;;;;;;;5.93;3.90;;;2.60;99.90;;;;;;2081443;28;20107;-71
2023/04/04 01:40:59;;;;;;;8.05;3.83;;;2.60;99.90;;;;;;2086633;28;20021;-72
2023/04/04 01:42:01;;;;;;;8.40;4.00;;;2.60;99.90;;;;;;2095138;28;20489;-74
2023/04/04 01:43:03;;;;;;;10.52;4.13;;;2.50;99.90;;;;;;2090405;28;20031;-72
2023/04/04 01:44:08;;;;;;;7.28;3.80;;;2.60;99.90;;;;;;2084398;28;20052;-72
2023/04/04 01:45:09;;;;;;;6.47;4.07;;;2.50;99.90;;;;;;2068914;28;20036;-72
2023/04/04 01:46:10;;;;;;;7.60;4.00;;;2.50;99.90;;;;;;2076569;28;20029;-72
2023/04/04 01:47:12;;;;;;;8.50;4.05;;;2.50;99.90;;;;;;2083201;28;20623;-72
2023/04/04 01:48:15;;;;;;;7.40;3.95;;;2.50;99.90;;;;;;2085651;28;20036;-72
2023/04/04 01:49:17;;;;;;;7.50;4.00;;;2.50;99.90;;;;;;2083451;28;20141;-72
2023/04/04 01:50:18;;;;;;;7.75;4.13;;;2.50;99.90;;;;;;2086236;28;20028;-72
2023/04/04 01:51:20;;;;;;;7.93;4.03;;;2.50;99.90;;;;;;2090091;28;20747;-72
2023/04/04 01:52:21;;;;;;;7.00;4.05;;;2.50;99.90;;;;;;2083608;28;20031;-71
2023/04/04 01:53:21;;;;;;;7.93;3.95;;;2.50;99.90;;;;;;2076274;28;20953;-72
2023/04/04 01:54:22;;;;;;;8.18;4.00;;;2.40;99.90;;;;;;2076631;28;20080;-72
2023/04/04 01:55:23;;;;;;;7.70;3.70;;;2.50;99.90;;;;;;2084735;28;20039;-72
2023/04/04 01:56:24;;;;;;;9.00;3.97;;;2.40;99.90;;;;;;2083637;28;20095;-73
2023/04/04 01:57:24;;;;;;;7.97;3.90;;;2.40;99.90;;;;;;2077996;28;20127;-73
2023/04/04 01:58:25;;;;;;;7.53;3.80;;;2.40;99.90;;;;;;2078118;28;20039;-73
2023/04/04 01:59:26;;;;;;;7.30;4.00;;;2.40;99.90;;;;;;2086250;28;20068;-73
2023/04/04 02:00:27;;;;;;;8.00;4.57;;;2.40;99.90;;;;;;2088189;28;20094;-73
2023/04/04 02:01:27;;;;;;;7.85;4.05;;;2.40;99.90;;;;;;2081255;28;20025;-72
2023/04/04 02:02:28;;;;;;;7.18;4.07;;;2.40;99.90;;;;;;2085307;28;20028;-73
2023/04/04 02:03:29;;;;;;;9.15;4.18;;;2.40;99.90;;;;;;2083499;28;20025;-72
2023/04/04 02:04:30;;;;;;;7.72;3.80;;;2.40;99.90;;;;;;2080286;28;20059;-73
2023/04/04 02:05:31;;;;;;;6.20;3.70;;;2.40;99.90;;;;;;2083897;28;20084;-73
2023/04/04 02:06:31;;;;;;;6.30;3.60;;;2.50;99.90;;;;;;2085712;28;20047;-69
2023/04/04 02:07:32;;;;;;;8.30;3.85;;;2.40;99.90;;;;;;2077575;28;20104;-69
2023/04/04 02:08:32;;;;;;;8.23;4.20;;;2.40;99.90;;;;;;2081289;28;20059;-69
2023/04/04 02:09:33;;;;;;;6.07;3.75;;;2.40;99.90;;;;;;2093788;28;20066;-69
2023/04/04 02:10:34;;;;;;;7.93;4.22;;;2.40;99.90;;;;;;2083946;28;20064;-69
2023/04/04 02:11:35;;;;;;;8.13;4.28;;;2.40;99.90;;;;;;2077548;28;20544;-69
2023/04/04 02:12:36;;;;;;;8.65;4.20;;;2.40;99.90;;;;;;2080384;28;20099;-69
2023/04/04 02:13:40;;;;;;;6.90;4.00;;;2.40;99.90;;;;;;2084430;28;20037;-69
2023/04/04 02:14:41;;;;;;;6.60;3.78;;;2.40;99.90;;;;;;2087554;28;20448;-69
2023/04/04 02:15:42;;;;;;;7.95;4.22;;;2.40;99.90;;;;;;2086484;28;20035;-67
2023/04/04 02:16:42;;;;;;;8.32;4.10;;;2.40;99.90;;;;;;2086725;28;20036;-79
2023/04/04 02:17:47;;;;;;;7.90;3.90;;;2.40;99.90;;;;;;2083826;28;20029;-80
2023/04/04 02:18:47;;;;;;;7.75;3.83;;;2.30;99.90;;;;;;2084476;28;20028;-79
2023/04/04 02:19:48;;;;;;;8.82;4.05;;;2.30;99.90;;;;;;2077409;28;20155;-80
2023/04/04 02:20:56;;;;;;;7.85;4.20;;;2.30;99.90;;;;;;2076055;28;20036;-79
2023/04/04 02:21:56;;;;;;;7.93;4.30;;;2.30;99.90;;;;;;2083651;28;20025;-79
2023/04/04 02:22:57;;;;;;;7.38;4.25;;;2.30;99.90;;;;;;2085485;28;20036;-77
2023/04/04 02:23:58;;;;;;;6.43;3.80;;;2.30;99.90;;;;;;2085427;28;20026;-79
2023/04/04 02:25:01;;;;;;;9.07;4.53;;;2.30;99.90;;;;;;2084649;28;20021;-79
2023/04/04 02:26:02;;;;;;;7.90;4.30;;;2.20;99.90;;;;;;2077569;28;20021;-79
2023/04/04 02:27:03;;;;;;;6.80;3.88;;;2.20;99.90;;;;;;2081712;28;20036;-79
2023/04/04 02:28:04;;;;;;;9.93;4.30;;;2.20;99.90;;;;;;2081651;28;20042;-78
2023/04/04 02:29:05;;;;;;;7.47;4.10;;;2.20;99.90;;;;;;2076311;28;20676;-80
2023/04/04 02:30:06;;;;;;;6.32;4.03;;;2.20;99.90;;;;;;2082316;28;20029;-80
2023/04/04 02:31:10;;;;;;;8.52;4.03;;;2.20;99.90;;;;;;2091800;28;20032;-80
2023/04/04 02:32:10;;;;;;;6.95;4.00;;;2.10;99.90;;;;;;2080672;28;20021;-81
2023/04/04 02:33:11;;;;;;;9.57;4.57;;;2.10;99.90;;;;;;2079382;28;20103;-80
2023/04/04 02:34:12;;;;;;;8.38;3.75;;;2.00;99.90;;;;;;2075502;28;20037;-80
2023/04/04 02:35:15;;;;;;;8.88;4.25;;;2.00;99.90;;;;;;2085030;28;20052;-81
2023/04/04 02:36:16;;;;;;;8.75;4.28;;;2.00;99.90;;;;;;2080386;28;20032;-81
2023/04/04 02:37:18;;;;;;;8.88;4.45;;;1.90;99.90;;;;;;2086601;28;20031;-81
2023/04/04 02:38:19;;;;;;;8.95;4.30;;;1.90;99.90;;;;;;2084174;28;20029;-81
2023/04/04 02:39:20;;;;;;;8.55;4.22;;;1.90;99.90;;;;;;2083603;28;20090;-80
2023/04/04 02:40:22;;;;;;;9.07;4.20;;;1.80;99.90;;;;;;2077412;28;20045;-81
2023/04/04 02:41:23;;;;;;;6.88;4.05;;;1.80;99.90;;;;;;2072412;28;20060;-82
2023/04/04 02:42:24;;;;;;;6.60;3.60;;;1.80;99.90;;;;;;2075267;28;20123;-81
2023/04/04 02:43:25;;;;;;;6.82;3.85;;;1.80;99.90;;;;;;2086839;28;20126;-81
2023/04/04 02:44:26;;;;;;;6.93;4.03;;;1.70;99.90;;;;;;2086591;28;20024;-81
2023/04/04 02:45:28;;;;;;;9.52;4.10;;;1.70;99.90;;;;;;2086661;28;20025;-81
2023/04/04 02:46:37;;;;;;;8.57;3.83;;;1.70;99.90;;;;;;2086268;28;20040;-81
2023/04/04 02:47:41;;;;;;;7.20;3.83;;;1.70;99.90;;;;;;2083406;28;20147;-82
2023/04/04 02:48:43;;;;;;;7.13;4.05;;;1.70;99.90;;;;;;2087074;28;20714;-82
2023/04/04 02:49:44;;;;;;;7.65;4.18;;;1.60;99.90;;;;;;2081735;28;20056;-82
2023/04/04 02:50:46;;;;;;;8.27;4.18;;;1.60;99.90;;;;;;2083238;28;20047;-80
2023/04/04 02:51:48;;;;;;;7.60;4.10;;;1.60;99.90;;;;;;2082516;28;20027;-81
2023/04/04 02:52:49;;;;;;;6.07;3.88;;;1.60;99.90;;;;;;2092130;28;20801;-81
2023/04/04 02:53:49;;;;;;;8.32;4.38;;;1.60;99.90;;;;;;2084390;28;20459;-80
2023/04/04 02:54:56;;;;;;;8.45;4.13;;;1.60;99.90;;;;;;2082743;28;20113;-82
2023/04/04 02:56:06;;;;;;;8.57;4.18;;;1.60;99.90;;;;;;2084271;28;20032;-80
2023/04/04 02:57:07;;;;;;;7.75;4.40;;;1.60;99.90;;;;;;2080816;28;20027;-79
2023/04/04 02:58:08;;;;;;;9.90;4.43;;;1.50;99.90;;;;;;2083334;28;20037;-80
2023/04/04 02:59:08;;;;;;;6.53;3.92;;;1.50;99.90;;;;;;2067628;28;20467;-80
2023/04/04 03:00:10;;;;;;;6.35;3.85;;;1.50;99.90;;;;;;2082131;28;20030;-80
2023/04/04 03:01:11;;;;;;;7.07;3.92;;;1.50;99.90;;;;;;2089945;28;20062;-80
2023/04/04 03:02:12;;;;;;;7.38;4.15;;;1.50;99.90;;;;;;2086717;28;20139;-80
2023/04/04 03:03:13;;;;;;;10.50;4.50;;;1.50;99.90;;;;;;2093364;28;20460;-78
2023/04/04 03:04:20;;;;;;;8.80;4.47;;;1.50;99.90;;;;;;2083660;28;20112;-79
2023/04/04 03:05:24;;;;;;;7.78;4.07;;;1.50;99.90;;;;;;2070155;28;20041;-80
2023/04/04 03:06:24;;;;;;;7.72;4.65;;;1.50;99.90;;;;;;2076636;28;20037;-80
2023/04/04 03:07:25;;;;;;;8.65;4.07;;;1.50;99.90;;;;;;2076049;28;20021;-80
2023/04/04 03:08:27;;;;;;;6.72;4.13;;;1.50;99.90;;;;;;2072706;28;20034;-80
2023/04/04 03:09:31;;;;;;;7.18;4.40;;;1.50;99.90;;;;;;2076246;28;20033;-79
2023/04/04 03:10:32;;;;;;;8.25;4.35;;;1.50;99.90;;;;;;2080685;28;20034;-77
2023/04/04 03:11:32;;;;;;;9.25;4.63;;;1.50;99.90;;;;;;2079827;28;20037;-79
2023/04/04 03:12:33;;;;;;;10.15;4.70;;;1.50;99.90;;;;;;2081773;28;20048;-79
2023/04/04 03:13:33;;;;;;;6.93;5.03;;;1.50;99.90;;;;;;2078128;28;20037;-80
2023/04/04 03:14:34;;;;;;;8.70;4.88;;;1.60;99.90;;;;;;2077493;28;20021;-80
2023/04/04 03:15:35;;;;;;;9.15;5.10;;;1.60;99.90;;;;;;2088423;28;20033;-80
2023/04/04 03:16:36;;;;;;;8.80;4.70;;;1.60;99.90;;;;;;2085822;28;20020;-80
2023/04/04 03:17:37;;;;;;;9.35;4.70;;;1.60;99.90;;;;;;2085070;28;20033;-80
2023/04/04 03:18:37;;;;;;;9.45;5.03;;;1.60;99.90;;;;;;2080526;28;20041;-80
2023/04/04 03:19:39;;;;;;;6.68;4.57;;;1.60;99.90;;;;;;2079546;28;20013;-81
2023/04/04 03:20:40;;;;;;;9.25;4.60;;;1.70;99.90;;;;;;2078390;28;20025;-80
2023/04/04 03:21:40;;;;;;;9.43;4.68;;;1.70;99.90;;;;;;2086701;28;20020;-80
2023/04/04 03:22:41;;;;;;;8.43;4.45;;;1.70;99.90;;;;;;2076050;28;20110;-79
2023/04/04 03:23:42;;;;;;;8.32;4.63;;;1.70;99.90;;;;;;2084235;28;20036;-79
2023/04/04 03:24:42;;;;;;;9.95;5.00;;;1.80;99.90;;;;;;2086168;28;20029;-78
2023/04/04 03:25:43;;;;;;;9.75;4.80;;;1.70;99.90;;;;;;2085917;28;20029;-79
2023/04/04 03:26:43;;;;;;;8.98;4.80;;;1.70;99.90;;;;;;2087123;28;20048;-80
2023/04/04 03:27:46;;;;;;;8.65;4.55;;;1.80;99.90;;;;;;2078955;28;20117;-79
2023/04/04 03:28:53;;;;;;;9.52;4.70;;;1.70;99.90;;;;;;2079788;28;20029;-79
2023/04/04 03:29:56;;;;;;;9.02;4.80;;;1.70;99.90;;;;;;2082246;28;20025;-81
2023/04/04 03:31:05;;;;;;;9.93;4.97;;;1.70;99.90;;;;;;2075728;28;20863;-80
2023/04/04 03:32:06;;;;;;;7.43;4.68;;;1.80;99.90;;;;;;2079669;28;20037;-80
2023/04/04 03:33:07;;;;;;;7.20;4.80;;;1.80;99.90;;;;;;2080634;28;20166;-81
2023/04/04 03:34:08;;;;;;;6.57;4.57;;;1.80;99.90;;;;;;2087578;28;20055;-77
2023/04/04 03:35:09;;;;;;;11.70;5.07;;;1.80;99.90;;;;;;2090668;28;20028;-79
2023/04/04 03:36:11;;;;;;;8.70;4.88;;;1.80;99.90;;;;;;2091452;28;20055;-80
2023/04/04 03:37:12;;;;;;;8.68;4.45;;;1.80;99.90;;;;;;2096142;28;20028;-81
2023/04/04 03:38:13;;;;;;;7.45;4.40;;;1.80;99.90;;;;;;2089043;28;20029;-80
2023/04/04 03:39:14;;;;;;;9.77;4.63;;;1.80;99.90;;;;;;2094656;28;20078;-79
2023/04/04 03:40:14;;;;;;;9.43;4.80;;;1.80;99.90;;;;;;2093458;28;20081;-81
2023/04/04 03:41:16;;;;;;;9.15;4.40;;;1.80;99.90;;;;;;2081962;28;20048;-79
2023/04/04 03:42:16;;;;;;;9.23;4.85;;;1.80;99.90;;;;;;2084753;28;20079;-80
2023/04/04 03:43:17;;;;;;;9.95;4.50;;;1.80;99.90;;;;;;2088153;28;20024;-80
2023/04/04 03:44:17;;;;;;;10.60;4.82;;;1.80;99.90;;;;;;2087847;28;20028;-80
2023/04/04 03:45:18;;;;;;;7.88;4.50;;;1.80;99.90;;;;;;2084936;28;20104;-80
2023/04/04 03:46:19;;;;;;;9.65;4.85;;;1.80;99.90;;;;;;2097355;28;20028;-80
2023/04/04 03:47:20;;;;;;;9.50;4.57;;;1.80;99.90;;;;;;2086664;28;20336;-80
2023/04/04 03:48:21;;;;;;;9.52;4.63;;;1.80;99.90;;;;;;2082708;28;20025;-80
2023/04/04 03:49:22;;;;;;;8.63;4.40;;;1.70;99.90;;;;;;2082828;28;20021;-79
2023/04/04 03:50:22;;;;;;;7.63;4.40;;;1.80;99.90;;;;;;2075028;28;20152;-81
2023/04/04 03:51:26;;;;;;;9.70;4.47;;;1.80;99.90;;;;;;2080991;28;20111;-81
2023/04/04 03:52:27;;;;;;;9.25;4.53;;;1.80;99.90;;;;;;2085117;28;20049;-79
2023/04/04 03:53:28;;;;;;;8.10;4.45;;;1.80;99.90;;;;;;2081743;28;20044;-80
2023/04/04 03:54:28;;;;;;;9.40;4.43;;;1.80;99.90;;;;;;2096620;28;20036;-81
2023/04/04 03:55:29;;;;;;;11.73;4.88;;;1.80;99.90;;;;;;2089168;28;20024;-81
2023/04/04 03:56:33;;;;;;;9.13;5.00;;;1.80;99.90;;;;;;2087336;28;20060;-81
2023/04/04 03:57:38;;;;;;;11.30;4.70;;;1.80;99.90;;;;;;2086317;28;20028;-81
2023/04/04 03:58:44;;;;;;;10.02;4.53;;;1.80;99.90;;;;;;2079123;28;20013;-81
2023/04/04 03:59:49;;;;;;;10.15;5.10;;;1.70;99.90;;;;;;2079179;28;20020;-80
2023/04/04 04:00:50;;;;;;;9.20;4.78;;;1.70;99.90;;;;;;2072000;28;20025;-80
2023/04/04 04:01:51;;;;;;;12.27;5.03;;;1.70;99.90;;;;;;2076450;28;20025;-79
2023/04/04 04:02:51;;;;;;;8.48;5.10;;;1.70;99.90;;;;;;2076673;28;20049;-80
2023/04/04 04:03:53;;;;;;;9.75;4.68;;;1.70;99.90;;;;;;2068111;28;20093;-79
2023/04/04 04:04:53;;;;;;;10.20;5.00;;;1.70;99.90;;;;;;2086239;28;20086;-79
2023/04/04 04:05:54;;;;;;;8.38;4.53;;;1.70;99.90;;;;;;2096239;28;20024;-79
2023/04/04 04:06:54;;;;;;;10.52;5.07;;;1.70;99.90;;;;;;2082605;28;20669;-79
2023/04/04 04:07:55;;;;;;;9.10;5.00;;;1.70;99.90;;;;;;2074078;28;20021;-81
2023/04/04 04:08:56;;;;;;;8.48;4.95;;;1.60;99.90;;;;;;2066211;28;20030;-81
2023/04/04 04:09:56;;;;;;;8.80;4.70;;;1.70;99.90;;;;;;2081589;28;20431;-80
2023/04/04 04:11:03;;;;;;;10.85;4.93;;;1.70;99.90;;;;;;2081379;28;20599;-80
2023/04/04 04:12:04;;;;;;;9.63;4.55;;;1.70;99.90;;;;;;2080469;28;20044;-79
2023/04/04 04:13:04;;;;;;;9.70;4.63;;;1.70;99.90;;;;;;2072448;28;20034;-79
2023/04/04 04:14:06;;;;;;;11.63;5.00;;;1.70;99.90;;;;;;2083435;28;20436;-80
2023/04/04 04:15:07;;;;;;;9.52;4.70;;;1.70;99.90;;;;;;2082793;28;20083;-81
2023/04/04 04:16:08;;;;;;;9.13;4.75;;;1.70;99.90;;;;;;2079490;28;20029;-80
2023/04/04 04:17:09;;;;;;;10.07;4.90;;;1.70;99.90;;;;;;2087121;28;20025;-81
2023/04/04 04:18:10;;;;;;;8.82;4.80;;;1.70;99.90;;;;;;2088598;28;20020;-80
2023/04/04 04:19:11;;;;;;;8.48;4.63;;;1.70;99.90;;;;;;2083153;28;20036;-80
2023/04/04 04:20:15;;;;;;;10.60;4.78;;;1.70;99.90;;;;;;2077041;28;20428;-79
2023/04/04 04:21:20;;;;;;;8.25;4.32;;;1.70;99.90;;;;;;2070346;28;20541;-82
2023/04/04 04:22:21;;;;;;;10.15;4.90;;;1.70;99.90;;;;;;2073881;28;20030;-80
2023/04/04 04:23:22;;;;;;;10.50;4.63;;;1.70;99.90;;;;;;2080959;28;20407;-80
2023/04/04 04:24:24;;;;;;;10.48;4.43;;;1.70;99.90;;;;;;2087651;28;20035;-80
2023/04/04 04:25:25;;;;;;;9.85;4.80;;;1.70;99.90;;;;;;2082091;28;20450;-80
2023/04/04 04:26:46;;;;;;;8.90;4.60;;;1.70;99.90;;;;;;2084460;28;20520;-81
2023/04/04 04:27:49;;;;;;;13.30;5.03;;;1.70;99.90;;;;;;2088261;28;20554;-81
2023/04/04 04:28:51;;;;;;;9.02;4.50;;;1.80;99.90;;;;;;2087289;28;20024;-81
2023/04/04 04:29:59;;;;;;;9.80;4.68;;;1.70;99.90;;;;;;2079896;28;20021;-81
2023/04/04 04:31:08;;;;;;;8.27;4.72;;;1.70;99.90;;;;;;2076730;28;20037;-81
2023/04/04 04:32:16;;;;;;;9.70;4.95;;;1.70;99.90;;;;;;2079255;28;20094;-80
2023/04/04 04:33:30;;;;;;;10.57;5.30;;;1.80;99.90;;;;;;2076252;28;20048;-81
2023/04/04 04:34:34;;;;;;;9.10;4.88;;;1.80;99.90;;;;;;2078727;28;20083;-82
2023/04/04 04:35:38;;;;;;;8.65;4.70;;;1.80;99.90;;;;;;2077085;28;20434;-80
2023/04/04 04:36:39;;;;;;;9.73;5.10;;;1.80;99.90;;;;;;2080000;28;20025;-82
2023/04/04 04:37:59;;;;;;;10.93;5.40;;;1.80;99.90;;;;;;2076987;28;20025;-81
2023/04/04 04:39:00;;;;;;;10.88;5.28;;;1.80;99.90;;;;;;2080290;28;20272;-81
2023/04/04 04:40:04;;;;;;;8.93;4.88;;;1.80;99.90;;;;;;2088121;28;20141;-81
2023/04/04 04:41:11;;;;;;;7.80;4.68;;;1.80;99.90;;;;;;2076017;28;20503;-83
2023/04/04 04:42:17;;;;;;;10.35;4.97;;;1.80;99.90;;;;;;2087302;28;20188;-81
2023/04/04 04:43:25;;;;;;;10.63;4.93;;;1.80;99.90;;;;;;2086348;28;20025;-80
2023/04/04 04:44:25;;;;;;;11.20;4.78;;;1.80;99.90;;;;;;2078714;28;20017;-83
2023/04/04 04:45:28;;;;;;;9.15;4.80;;;1.80;99.90;;;;;;2078521;28;20036;-83
2023/04/04 04:46:39;;;;;;;9.75;4.75;;;1.80;99.90;;;;;;2085795;28;20024;-74
2023/04/04 04:47:46;;;;;;;8.98;5.07;;;1.80;99.90;;;;;;2090796;28;20028;-77
2023/04/04 04:48:50;;;;;;;8.52;4.57;;;1.80;99.90;;;;;;2072912;28;20034;-77
2023/04/04 04:49:56;;;;;;;9.45;4.85;;;1.80;99.90;;;;;;2066303;28;20027;-77
2023/04/04 04:51:07;;;;;;;;;;;1.80;99.90;;;;;;2079792;28;20962;-76
2023/04/04 04:52:14;;;;;;;8.77;4.47;;;1.80;99.90;;;;;;2078682;28;19909;-74
2023/04/04 04:53:17;;;;;;;11.13;4.80;;;1.80;99.90;;;;;;2076645;28;20033;-74
2023/04/04 04:54:20;;;;;;;11.52;4.60;;;1.80;99.90;;;;;;2078320;28;20037;-74
2023/04/04 04:55:26;;;;;;;8.52;4.72;;;1.80;99.90;;;;;;2077638;28;20034;-77
2023/04/04 04:56:40;;;;;;;8.98;4.30;;;1.90;99.90;;;;;;2080278;28;20025;-74
2023/04/04 04:57:46;;;;;;;8.52;4.47;;;1.90;99.90;;;;;;2085643;28;20411;-75
2023/04/04 04:58:52;;;;;;;11.43;4.40;;;1.90;99.90;;;;;;2080540;28;20068;-75
2023/04/04 05:00:00;;;;;;;9.68;4.55;;;1.90;99.90;;;;;;2072586;28;20025;-75
2023/04/04 05:01:01;;;;;;;7.32;4.13;;;1.90;99.90;;;;;;2076342;28;20073;-75
2023/04/04 05:02:09;;;;;;;8.18;4.25;;;1.90;99.90;;;;;;2084514;28;20499;-75
2023/04/04 05:03:16;;;;;;;9.07;4.32;;;1.90;99.90;;;;;;2085048;28;20021;-76
2023/04/04 05:04:21;;;;;;;8.02;4.72;;;1.90;99.90;;;;;;2090135;28;20032;-76
2023/04/04 05:05:36;;;;;;;8.57;4.40;;;2.00;99.90;;;;;;2087301;28;20132;-77
2023/04/04 05:06:41;;;;;;;8.32;4.35;;;2.00;99.90;;;;;;2087581;28;20021;-87
2023/04/04 05:07:45;;;;;;;7.20;4.38;;;2.00;99.90;;;;;;2084687;28;20132;-80
2023/04/04 05:08:46;;;;;;;8.02;4.32;;;2.00;99.90;;;;;;2084864;28;20090;-83
2023/04/04 05:09:55;;;;;;;8.98;4.82;;;2.00;99.90;;;;;;2084056;28;20479;-85
2023/04/04 05:10:56;;;;;;;7.95;4.40;;;2.00;99.90;;;;;;2088601;28;20087;-77
2023/04/04 05:12:01;;;;;;;9.07;4.55;;;1.90;99.90;;;;;;2084936;28;20070;-78
2023/04/04 05:13:12;;;;;;;10.25;4.78;;;2.00;99.90;;;;;;2077395;28;20412;-79
2023/04/04 05:14:16;;;;;;;9.38;4.47;;;2.00;99.90;;;;;;2089416;28;20032;-80
2023/04/04 05:15:31;;;;;;;9.80;4.50;;;2.00;99.90;;;;;;2091298;28;20055;-80
2023/04/04 05:16:32;;;;;;;10.13;4.03;;;1.90;99.90;;;;;;2078225;28;20067;-76
2023/04/04 05:17:34;;;;;;;10.25;4.72;;;2.00;99.90;;;;;;2089477;28;20052;-76
2023/04/04 05:18:38;;;;;;;10.05;4.32;;;1.90;99.90;;;;;;2083408;28;20051;-76
2023/04/04 05:19:43;;;;;;;7.88;4.30;;;2.00;99.90;;;;;;2072304;28;20030;-76
2023/04/04 05:20:53;;;;;;;10.48;4.43;;;2.10;99.90;;;;;;2082611;28;20039;-76
2023/04/04 05:21:54;;;;;;;8.38;3.83;;;2.10;99.90;;;;;;2083184;28;20412;-75
2023/04/04 05:23:09;;;;;;;10.52;4.53;;;2.10;99.90;;;;;;2088477;28;20430;-76
2023/04/04 05:24:15;;;;;;;8.95;4.07;;;2.20;99.90;;;;;;2083705;28;20021;-81
2023/04/04 05:25:16;;;;;;;7.65;4.18;;;2.20;99.90;;;;;;2073246;28;20037;-79
2023/04/04 05:26:19;;;;;;;8.48;4.40;;;2.20;99.90;;;;;;2068903;28;20022;-76
2023/04/04 05:27:23;;;;;;;8.55;4.10;;;2.30;99.90;;;;;;2075062;28;20698;-74
2023/04/04 05:28:30;;;;;;;8.05;4.20;;;2.30;99.90;;;;;;2078895;28;20108;-77
2023/04/04 05:29:34;;;;;;;10.23;4.78;;;2.30;99.90;;;;;;2074428;28;20598;-76
2023/04/04 05:30:38;;;;;;;8.63;4.32;;;2.30;99.90;;;;;;2087945;28;20136;-81